Terminal Aerodrome Forecast
Issued by NWS St Louis, MO

Home | Current Version | Previous Version | Text Only | Print | Product List | Glossary On
Versions: 1 2 3 4 5 6 7 8 9 10 11 12 13 14 15 16 17 18
358
FTUS43 KLSX 101859 AAA
TAFCOU
TAF AMD
KCOU 101859Z 1019/1118 16005KT 4SM -SN OVC040
      TEMPO 1019/1020 2SM -SN OVC020
     FM102100 13007KT P6SM VCSH OVC040
     FM110100 08009KT P6SM BKN060=

USA.gov is the U.S. government's official web portal to all federal, state and local government web resources and services.